Cub — WZY7370 — position and weather

sailwx.info

Track history (hours):
 
Tides and Currents Weather Stations Pressure Air Temp Water Temp Dewpoint Dewpoint Depression Visibility Wind Speed Wind Dir Waves Ship Positions

Cub

Owner: CALIFORNIA, STATE OF, SACRAMENTO, CA. More information available from US FCC via Universal Licensing System.

Last reported at 2018-Apr-19 21:52 UTC. Time now 2018-Apr-23 09:44 UTC.
Position N 38°04' W 122°14'.

Length 20 m; draft 2 m.

Type: Pleasure craft. MMSI: 366984060.

Date/timePositionNaut miles runAvg speedWind from/ knotsBaromVisibWave heightAir tempDewpointWater temp
2018-Apr-19 21:52N 38°04' W 122°14'2 4.0
2018-Apr-19 21:28N 38°05' W 122°15'0 0.0
2018-Apr-19 20:06N 38°05' W 122°15'1 6.3
2018-Apr-19 19:55N 38°04' W 122°15'1 0.2
2018-Apr-19 17:05N 38°04' W 122°14'0 1.6
2018-Apr-19 16:58N 38°04' W 122°14'4 5.0
2018-Apr-19 16:12N 38°07' W 122°17'3 5.4
2018-Apr-19 15:36N 38°05' W 122°15'0 2.8
2018-Apr-19 15:29N 38°04' W 122°15'1 0.0
2018-Apr-18 17:37N 38°04' W 122°14'0 0.4
2018-Apr-18 17:30N 38°04' W 122°14'0 0.1
2018-Apr-18 16:23N 38°04' W 122°14'0 0.0
2018-Apr-17 21:22N 38°04' W 122°14'2 5.1
2018-Apr-17 21:00N 38°05' W 122°15'2 3.4
2018-Apr-17 20:20N 38°07' W 122°17'410.1
2018-Apr-17 19:58N 38°04' W 122°15'1 0.3
2018-Apr-17 17:45N 38°04' W 122°14'0 0.0
2018-Apr-17 17:21N 38°04' W 122°14'3 6.1
2018-Apr-17 16:47N 38°07' W 122°17'1 1.8
2018-Apr-17 16:22N 38°07' W 122°17'3 3.8
2018-Apr-17 15:33N 38°05' W 122°15'1 6.5
2018-Apr-17 15:28N 38°04' W 122°15'1 1.5
2018-Apr-17 14:56N 38°04' W 122°14'0 0.0
2018-Apr-16 18:25N 38°04' W 122°14'4 5.0
2018-Apr-16 17:42N 38°03' W 122°18'2 7.1
2018-Apr-16 17:29N 38°02' W 122°20'1 2.4
2018-Apr-16 17:00N 38°03' W 122°19'3 6.6
2018-Apr-16 16:30N 38°04' W 122°15'  
2018-Apr-12 22:17N 38°04' W 122°14'0 1.6
2018-Apr-12 22:01N 38°04' W 122°14'3 4.4
2018-Apr-12 21:26N 38°03' W 122°17'3 6.3
2018-Apr-12 20:55N 38°02' W 122°21'3 6.7
2018-Apr-12 20:30N 38°03' W 122°18'3 1.1
2018-Apr-12 17:14N 38°04' W 122°14'0 1.1
2018-Apr-12 17:00N 38°04' W 122°14'4 7.0
2018-Apr-12 16:28N 38°03' W 122°19'0 0.8
2018-Apr-12 16:00N 38°03' W 122°19'1 0.0
2018-Apr-11 17:27N 38°03' W 122°18'1 2.9
2018-Apr-11 17:00N 38°03' W 122°20'5 0.2
2018-Apr-10 21:44N 38°04' W 122°14'0 0.6
2018-Apr-10 21:27N 38°04' W 122°14'6 6.2
2018-Apr-10 20:31N 38°02' W 122°21'0 4.5
2018-Apr-10 20:29N 38°02' W 122°21'510.3
2018-Apr-10 19:58N 38°04' W 122°14'0 0.2
2018-Apr-10 16:57N 38°04' W 122°14'2 4.6
2018-Apr-10 16:28N 38°03' W 122°17'1 1.9
2018-Apr-10 15:44N 38°03' W 122°18'2 8.7
2018-Apr-10 15:30N 38°04' W 122°16'  
Track history (hours):
 
Tides and Currents Weather Stations Pressure Air Temp Water Temp Dewpoint Dewpoint Depression Visibility Wind Speed Wind Dir Waves Ship Positions

Cub

Owner: CALIFORNIA, STATE OF, SACRAMENTO, CA. More information available from US FCC via Universal Licensing System.

Last reported at 2018-Apr-19 21:52 UTC. Time now 2018-Apr-23 09:44 UTC.
Position N 38°04' W 122°14'.

Length 20 m; draft 2 m.

Type: Pleasure craft. MMSI: 366984060.

Date/timePositionNaut miles runAvg speedWind from/ knotsBaromVisibWave heightAir tempDewpointWater temp
2018-Apr-19 21:52N 38°04' W 122°14'2 4.0
2018-Apr-19 21:28N 38°05' W 122°15'0 0.0
2018-Apr-19 20:06N 38°05' W 122°15'1 6.3
2018-Apr-19 19:55N 38°04' W 122°15'1 0.2
2018-Apr-19 17:05N 38°04' W 122°14'0 1.6
2018-Apr-19 16:58N 38°04' W 122°14'4 5.0
2018-Apr-19 16:12N 38°07' W 122°17'3 5.4
2018-Apr-19 15:36N 38°05' W 122°15'0 2.8
2018-Apr-19 15:29N 38°04' W 122°15'1 0.0
2018-Apr-18 17:37N 38°04' W 122°14'0 0.4
2018-Apr-18 17:30N 38°04' W 122°14'0 0.1
2018-Apr-18 16:23N 38°04' W 122°14'0 0.0
2018-Apr-17 21:22N 38°04' W 122°14'2 5.1
2018-Apr-17 21:00N 38°05' W 122°15'2 3.4
2018-Apr-17 20:20N 38°07' W 122°17'410.1
2018-Apr-17 19:58N 38°04' W 122°15'1 0.3
2018-Apr-17 17:45N 38°04' W 122°14'0 0.0
2018-Apr-17 17:21N 38°04' W 122°14'3 6.1
2018-Apr-17 16:47N 38°07' W 122°17'1 1.8
2018-Apr-17 16:22N 38°07' W 122°17'3 3.8
2018-Apr-17 15:33N 38°05' W 122°15'1 6.5
2018-Apr-17 15:28N 38°04' W 122°15'1 1.5
2018-Apr-17 14:56N 38°04' W 122°14'0 0.0
2018-Apr-16 18:25N 38°04' W 122°14'4 5.0
2018-Apr-16 17:42N 38°03' W 122°18'2 7.1
2018-Apr-16 17:29N 38°02' W 122°20'1 2.4
2018-Apr-16 17:00N 38°03' W 122°19'3 6.6
2018-Apr-16 16:30N 38°04' W 122°15'  
2018-Apr-12 22:17N 38°04' W 122°14'0 1.6
2018-Apr-12 22:01N 38°04' W 122°14'3 4.4
2018-Apr-12 21:26N 38°03' W 122°17'3 6.3
2018-Apr-12 20:55N 38°02' W 122°21'3 6.7
2018-Apr-12 20:30N 38°03' W 122°18'3 1.1
2018-Apr-12 17:14N 38°04' W 122°14'0 1.1
2018-Apr-12 17:00N 38°04' W 122°14'4 7.0
2018-Apr-12 16:28N 38°03' W 122°19'0 0.8
2018-Apr-12 16:00N 38°03' W 122°19'1 0.0
2018-Apr-11 17:27N 38°03' W 122°18'1 2.9
2018-Apr-11 17:00N 38°03' W 122°20'5 0.2
2018-Apr-10 21:44N 38°04' W 122°14'0 0.6
2018-Apr-10 21:27N 38°04' W 122°14'6 6.2
2018-Apr-10 20:31N 38°02' W 122°21'0 4.5
2018-Apr-10 20:29N 38°02' W 122°21'510.3
2018-Apr-10 19:58N 38°04' W 122°14'0 0.2
2018-Apr-10 16:57N 38°04' W 122°14'2 4.6
2018-Apr-10 16:28N 38°03' W 122°17'1 1.9
2018-Apr-10 15:44N 38°03' W 122°18'2 8.7
2018-Apr-10 15:30N 38°04' W 122°16'  

Dump ship's entire track history